This is the latest recevied weather packets stored in our database for station/object WC4PEM-10. If no packets are shown the sender has not sent any weather packets the latest 1 day(s).
| Time | Temp. | Humidity | Pressure | Rain* | Wind** | Luminosity | Snow |
|---|---|---|---|---|---|---|---|
| 1778088985 | 32.22° C | 51% | 1016.2 hPa | 0 mm | - | - | - |
| 1778088385 | 32.22° C | 52% | 1016.3 hPa | 0 mm | - | - | - |
| 1778088163 | 32.22° C | 51% | 1016.3 hPa | 0 mm | - | - | - |
| 1778088085 | 32.22° C | 51% | 1016.3 hPa | 0 mm | - | - | - |
| 1778087868 | 31.67° C | 54% | 1016.4 hPa | 0 mm | - | - | - |
| 1778087289 | 31.67° C | 53% | 1016.3 hPa | 0 mm | - | - | - |
| 1778087185 | 31.67° C | 53% | 1016.3 hPa | 0 mm | - | - | - |
| 1778086982 | 31.11° C | 54% | 1016.5 hPa | 0 mm | - | - | - |
| 1778086585 | 31.11° C | 54% | 1016.5 hPa | 0 mm | - | - | - |
| 1778086091 | 30.56° C | 55% | 1016.5 hPa | 0 mm | - | - | - |
| 1778085985 | 30.56° C | 55% | 1016.5 hPa | 0 mm | - | - | - |
| 1778085493 | 31.11° C | 55% | 1016.6 hPa | 0 mm | - | - | - |
| 1778085385 | 31.11° C | 55% | 1016.6 hPa | 0 mm | - | - | - |
| 1778083183 | 29.44° C | 59% | 1016.7 hPa | 0 mm | - | - | - |
| 1778082475 | 29.44° C | 61% | 1016.6 hPa | 0 mm | - | - | - |
| 1778081314 | 28.89° C | 62% | 1016.8 hPa | 0 mm | - | - | - |
| 1778080373 | 28.89° C | 65% | 1016.8 hPa | 0 mm | - | - | - |
| 1778080100 | 28.33° C | 69% | 1016.8 hPa | 0 mm | - | - | - |
| 1778079491 | 27.78° C | 69% | 1016.9 hPa | 0 mm | - | - | - |
| 1778078891 | 27.78° C | 69% | 1016.7 hPa | 0 mm | - | - | - |
| 1778078600 | 27.78° C | 72% | 1016.9 hPa | 0 mm | - | - | - |
| 1778078363 | 27.22° C | 73% | 1017 hPa | 0 mm | - | - | - |
| 1778075604 | 26.11° C | 79% | 1016.7 hPa | 0 mm | - | - | - |
| 1778075051 | 25.56° C | 82% | 1016.8 hPa | 0 mm | - | - | - |
| 1778074288 | 25° C | 83% | 1016.8 hPa | 0 mm | - | - | - |
* Rain latest hour (hover to see other rain measurements)
** Current wind speed in m/s (hover to see current wind gust speed)